createdAt,value
2018-04-06T06:36:29.443Z,2.93
2018-04-06T06:38:58.667Z,2.33
2018-04-06T06:41:28.330Z,3.40
2018-04-06T06:44:00.965Z,2.97
2018-04-06T06:46:30.977Z,3.50
2018-04-06T06:49:13.705Z,3.03
2018-04-06T06:51:42.191Z,3.40
2018-04-06T06:54:09.868Z,3.50
2018-04-06T06:56:38.502Z,3.73
2018-04-06T06:59:16.497Z,3.00
2018-04-06T07:01:45.118Z,3.60
2018-04-06T07:04:13.437Z,3.13
2018-04-06T08:01:37.270Z,3.60
2018-04-06T08:04:04.987Z,3.67
2018-04-06T08:06:32.825Z,3.50
2018-04-06T08:09:00.540Z,4.40
2018-04-06T08:11:28.251Z,4.23
2018-04-06T08:13:55.956Z,4.07
2018-04-06T08:16:23.644Z,4.57
2018-04-06T08:18:51.372Z,4.23
2018-04-06T08:21:19.104Z,4.73
2018-04-06T08:23:46.871Z,5.73
2018-04-06T08:26:14.695Z,4.83
2018-04-06T08:28:42.433Z,5.00
2018-04-06T08:31:10.178Z,5.47
2018-04-06T08:33:37.859Z,5.30
2018-04-06T08:36:07.301Z,5.10
2018-04-06T08:38:35.070Z,5.80
2018-04-06T08:41:03.469Z,6.80
2018-04-06T08:43:31.137Z,7.40
2018-04-06T08:45:59.825Z,6.80
2018-04-06T08:48:27.504Z,7.30
2018-04-06T08:50:55.983Z,5.83
2018-04-06T08:53:23.725Z,7.50
2018-04-06T08:55:51.503Z,6.60
2018-04-06T08:58:19.232Z,7.23
2018-04-06T09:00:46.998Z,7.67
2018-04-06T09:03:15.719Z,6.77
2018-04-06T09:05:43.412Z,6.33
2018-04-06T09:08:11.153Z,6.70
2018-04-06T09:10:38.882Z,6.70
2018-04-06T09:13:07.134Z,6.50
2018-04-06T09:15:35.087Z,7.50
2018-04-06T09:18:04.569Z,6.93
2018-04-06T09:20:32.284Z,6.50
2018-04-06T09:23:00.058Z,6.13
2018-04-06T09:25:28.509Z,5.90
2018-04-06T09:27:56.243Z,5.60
2018-04-06T09:30:23.980Z,5.40
2018-04-06T09:32:54.523Z,5.20
2018-04-06T09:35:22.272Z,4.83
2018-04-06T09:37:50.055Z,5.67
2018-04-06T09:40:17.799Z,5.47
2018-04-06T09:42:45.469Z,5.43
2018-04-06T09:45:13.190Z,4.63
2018-04-06T09:47:40.926Z,5.40
2018-04-06T09:50:08.654Z,4.80
2018-04-06T09:52:37.065Z,5.70
2018-04-06T09:55:04.729Z,5.30
2018-04-06T09:57:32.422Z,5.40
2018-04-06T10:00:00.144Z,5.10
2018-04-06T10:02:27.922Z,5.87
2018-04-06T10:04:55.703Z,5.70
2018-04-06T10:07:23.474Z,5.77
2018-04-06T10:09:51.246Z,5.47
2018-04-06T10:12:18.932Z,5.70
2018-04-06T10:14:47.375Z,5.43
2018-04-06T10:17:15.142Z,5.33
2018-04-06T10:19:42.943Z,5.30
2018-04-06T10:22:10.633Z,5.73
2018-04-06T10:24:38.316Z,6.00
2018-04-06T10:27:06.019Z,6.57
2018-04-06T10:29:34.484Z,6.13
2018-04-06T10:32:02.205Z,6.40
2018-04-06T10:34:29.921Z,6.27
2018-04-06T10:36:57.589Z,5.90
2018-04-06T10:39:25.307Z,6.70
2018-04-06T10:41:53.067Z,5.93
2018-04-06T10:44:21.476Z,6.13
2018-04-06T10:46:49.191Z,6.63
2018-04-06T10:49:16.942Z,6.17
2018-04-06T10:51:44.784Z,6.37
2018-04-06T10:54:12.498Z,6.67
2018-04-06T10:56:40.181Z,6.27
2018-04-06T10:59:07.874Z,6.30
2018-04-06T11:01:35.547Z,6.07
2018-04-06T11:04:03.255Z,6.23
2018-04-06T11:06:31.035Z,6.73
2018-04-06T11:09:00.267Z,6.57
2018-04-06T11:11:28.275Z,6.20
2018-04-06T11:13:57.374Z,6.60
2018-04-06T11:16:26.487Z,6.53
2018-04-06T11:18:55.641Z,6.93
2018-04-06T11:21:23.478Z,6.03
2018-04-06T11:23:51.226Z,5.70
2018-04-06T11:26:19.027Z,5.90
2018-04-06T11:28:46.726Z,6.00
2018-04-06T11:31:14.518Z,6.00
2018-04-06T11:33:42.384Z,5.67
2018-04-06T11:36:10.145Z,5.27
2018-04-06T11:38:37.845Z,4.20
2018-04-06T11:41:05.613Z,4.20
2018-04-06T11:43:33.371Z,4.10
2018-04-06T11:46:01.074Z,4.60
2018-04-06T11:48:28.879Z,4.30
2018-04-06T11:50:56.611Z,4.43
2018-04-06T11:53:24.285Z,4.10
2018-04-06T11:55:52.026Z,4.67
2018-04-06T11:58:19.904Z,4.40
2018-04-06T12:00:47.585Z,5.80
2018-04-06T12:03:15.313Z,6.73
2018-04-06T12:05:43.120Z,6.27
2018-04-06T12:08:10.841Z,6.60
2018-04-06T12:10:38.499Z,6.80
2018-04-06T12:13:06.309Z,6.97
2018-04-06T12:15:34.022Z,7.87
2018-04-06T12:18:04.830Z,7.43
2018-04-06T12:20:32.705Z,6.13
2018-04-06T12:23:03.174Z,5.83
2018-04-06T12:25:30.939Z,7.37
2018-04-06T12:27:58.694Z,8.77
2018-04-06T12:30:26.401Z,6.10
2018-04-06T12:32:54.065Z,6.30
2018-04-06T12:35:21.729Z,5.70
2018-04-06T12:37:49.577Z,6.00
2018-04-06T12:40:17.256Z,5.07
2018-04-06T12:42:45.710Z,7.10
2018-04-06T12:45:13.409Z,6.57
2018-04-06T12:47:41.118Z,6.93
2018-04-06T12:50:08.803Z,6.80
2018-04-06T12:52:36.560Z,6.60
2018-04-06T12:55:05.091Z,7.33
2018-04-06T12:57:32.754Z,7.90
2018-04-06T13:00:00.515Z,7.23
2018-04-06T13:02:28.278Z,7.37
2018-04-06T13:04:55.951Z,7.50
2018-04-06T13:07:23.685Z,7.13
2018-04-06T13:09:51.386Z,7.93
2018-04-06T13:12:19.149Z,7.30
2018-04-06T13:14:46.868Z,8.70
2018-04-06T13:17:14.555Z,9.73
2018-04-06T13:19:42.340Z,9.83
2018-04-06T13:22:10.038Z,10.07
2018-04-06T13:24:39.027Z,9.03
2018-04-06T13:27:07.691Z,10.73
2018-04-06T13:29:35.460Z,9.23
2018-04-06T13:32:03.177Z,8.80
2018-04-06T13:34:30.906Z,10.53
2018-04-06T13:37:00.327Z,10.83
2018-04-06T13:39:28.056Z,11.17
2018-04-06T13:41:56.236Z,10.07
2018-04-06T13:44:23.972Z,8.20
2018-04-06T13:46:52.397Z,8.60
2018-04-06T13:49:20.167Z,9.77
2018-04-06T13:51:47.924Z,8.73
2018-04-06T13:54:15.608Z,9.73
2018-04-06T13:56:43.291Z,9.00
2018-04-06T13:59:11.464Z,8.57
2018-04-06T14:01:39.175Z,8.03
2018-04-06T14:04:06.835Z,8.27
2018-04-06T14:06:34.611Z,7.40
2018-04-06T14:09:02.354Z,7.80
2018-04-06T14:11:30.057Z,8.10
2018-04-06T14:13:57.801Z,8.77
2018-04-06T14:16:31.207Z,9.37
2018-04-06T14:18:58.924Z,8.33
2018-04-06T14:21:26.616Z,8.40
2018-04-06T14:23:54.380Z,9.33
2018-04-06T14:26:22.200Z,9.17
2018-04-06T14:28:54.380Z,9.20
2018-04-06T14:31:42.988Z,6.53
2018-04-06T14:34:31.901Z,7.73
2018-04-06T14:53:46.333Z,5.90
2018-04-06T14:56:15.049Z,5.27
2018-04-06T14:58:46.974Z,5.70
2018-04-06T15:01:29.129Z,6.20
2018-04-06T15:04:12.934Z,7.87
2018-04-06T15:06:40.657Z,6.60
2018-04-06T15:09:17.402Z,5.60
2018-04-06T15:11:45.182Z,6.57
2018-04-06T15:14:38.652Z,5.40
2018-04-06T15:17:06.365Z,5.67
2018-04-06T15:19:34.175Z,4.17
2018-04-06T15:25:21.560Z,4.23
2018-04-06T15:30:44.773Z,3.70
2018-04-06T15:33:12.503Z,5.00
2018-04-06T15:35:40.244Z,3.60
2018-04-06T15:38:07.969Z,4.23
2018-04-06T15:43:21.487Z,5.30
2018-04-06T15:45:49.208Z,4.90
2018-04-06T15:48:16.962Z,4.97
2018-04-06T15:50:44.843Z,4.63
2018-04-06T15:53:12.800Z,5.57
2018-04-06T15:55:40.682Z,5.13
2018-04-06T15:58:08.631Z,4.97
2018-04-06T16:00:40.197Z,4.80
2018-04-06T16:03:08.249Z,4.87
2018-04-06T16:05:36.235Z,5.40
2018-04-06T16:08:04.021Z,4.57
2018-04-06T16:13:48.505Z,4.90
2018-04-06T16:16:16.238Z,5.07
2018-04-06T16:18:44.124Z,4.97
2018-04-06T16:21:11.790Z,4.33
2018-04-06T16:23:40.244Z,4.53
2018-04-06T16:56:01.163Z,4.90
2018-04-06T16:58:28.893Z,5.50
2018-04-06T17:00:56.604Z,5.83
2018-04-06T17:03:25.757Z,6.73
2018-04-06T17:06:02.284Z,6.67
2018-04-06T17:14:50.682Z,7.53
2018-04-06T18:00:22.586Z,8.47
2018-04-06T18:56:13.593Z,11.03
2018-04-06T18:58:49.020Z,10.73
2018-04-06T19:07:18.308Z,10.03
2018-04-06T19:09:52.010Z,10.57
2018-04-06T19:12:25.107Z,9.83
2018-04-06T19:31:27.046Z,9.17
2018-04-06T19:33:54.714Z,11.00
2018-04-06T19:36:24.006Z,9.20
2018-04-06T19:38:51.800Z,10.53
2018-04-06T19:41:31.845Z,11.00
2018-04-06T19:47:05.587Z,10.93
2018-04-06T19:55:59.222Z,11.63
2018-04-06T19:58:26.992Z,12.10
2018-04-06T20:00:54.676Z,12.23
2018-04-06T20:03:22.395Z,10.70
2018-04-06T20:05:50.104Z,12.13
2018-04-06T20:14:21.378Z,12.53
2018-04-06T20:16:49.094Z,11.57
2018-04-06T20:19:16.811Z,12.30
2018-04-06T20:21:51.433Z,12.90
2018-04-06T20:24:19.571Z,11.60
2018-04-06T20:26:47.295Z,14.40
2018-04-06T20:29:15.044Z,13.73
2018-04-06T20:31:42.767Z,12.33
2018-04-06T20:34:10.675Z,12.87
2018-04-06T21:00:59.790Z,15.03
2018-04-06T21:03:27.460Z,15.80
2018-04-06T21:05:55.688Z,14.50
2018-04-06T21:08:23.397Z,15.63
2018-04-06T21:10:51.519Z,14.83
2018-04-06T21:13:19.232Z,14.77
2018-04-06T21:15:46.990Z,13.97
2018-04-06T21:18:14.876Z,14.73
2018-04-06T21:20:42.617Z,15.70
2018-04-06T21:23:10.359Z,15.67
2018-04-06T21:25:38.698Z,15.30
2018-04-06T21:28:07.101Z,15.27
2018-04-06T21:30:34.852Z,14.23
2018-04-06T21:33:02.559Z,15.63
2018-04-06T21:35:30.355Z,16.43
2018-04-06T21:37:58.178Z,14.83
2018-04-06T21:40:25.912Z,15.90
2018-04-06T21:42:53.620Z,14.33
2018-04-06T21:45:21.375Z,16.00
2018-04-06T21:47:49.224Z,14.60
2018-04-06T21:50:17.041Z,16.50
2018-04-06T21:52:44.942Z,15.97
2018-04-06T21:55:12.731Z,15.53
2018-04-06T21:57:42.272Z,17.67
2018-04-06T22:00:12.728Z,16.73
2018-04-06T22:02:40.523Z,15.50
2018-04-06T22:05:08.314Z,15.17
2018-04-06T22:07:36.022Z,15.27
2018-04-06T22:10:03.816Z,16.87
2018-04-06T22:12:31.628Z,16.27
2018-04-06T22:14:59.299Z,15.73
2018-04-06T22:17:28.021Z,15.73
2018-04-06T22:19:55.731Z,15.87
2018-04-06T22:22:23.515Z,16.23
2018-04-06T22:24:51.278Z,15.47
2018-04-06T22:27:18.986Z,15.53
2018-04-06T22:29:46.768Z,14.53
2018-04-06T22:32:14.509Z,15.50
2018-04-06T22:34:42.552Z,15.57
2018-04-06T22:37:10.251Z,16.10
2018-04-06T22:39:38.870Z,16.60
2018-04-06T22:42:06.553Z,16.57
2018-04-06T22:44:34.279Z,15.87
2018-04-06T22:47:02.033Z,16.83
2018-04-06T22:49:29.795Z,16.97
2018-04-06T22:51:57.581Z,17.93
2018-04-06T22:54:25.296Z,17.10
2018-04-06T22:56:53.983Z,15.73
2018-04-06T22:59:21.666Z,17.40
2018-04-06T23:01:49.362Z,17.43
2018-04-06T23:04:17.141Z,18.40
2018-04-06T23:06:44.910Z,18.43
2018-04-06T23:09:12.593Z,17.33
2018-04-06T23:11:40.393Z,17.20
2018-04-06T23:14:08.084Z,16.73
2018-04-06T23:16:35.897Z,16.67
2018-04-06T23:19:03.653Z,16.77
2018-04-06T23:21:31.355Z,16.43
2018-04-06T23:23:59.039Z,17.43
2018-04-06T23:26:26.753Z,16.70
2018-04-06T23:28:54.452Z,17.30
2018-04-06T23:31:22.172Z,17.67
2018-04-06T23:33:50.035Z,17.33
2018-04-06T23:36:17.001Z,21.10
2018-04-06T23:38:44.689Z,16.90
2018-04-06T23:41:12.403Z,17.63
2018-04-06T23:43:40.082Z,18.10
2018-04-06T23:46:07.813Z,16.80
2018-04-06T23:48:35.495Z,16.83
2018-04-06T23:51:03.216Z,16.13
2018-04-06T23:53:31.890Z,16.90
2018-04-06T23:55:59.672Z,17.50
2018-04-06T23:58:27.455Z,16.97
